Time;durP1;ratioP1;P1;durP2;ratioP2;P2;SDS_P1;SDS_P2;PMS_P1;PMS_P2;Temp;Humidity;BMP_temperature;BMP_pressure;BME280_temperature;BME280_humidity;BME280_pressure;Samples;Min_cycle;Max_cycle;Signal;HPM_P1;HPM_P2
2023/10/10 00:02:18;;;;;;;0.10;0.10;;;;;;;;;;5148689;27;20047;-73
2023/10/10 00:04:47;;;;;;;0.20;0.20;;;;;;;;;;5148576;27;20148;-74
2023/10/10 00:07:18;;;;;;;0.10;0.10;;;;;;;;;;5147104;27;20100;-74
2023/10/10 00:09:45;;;;;;;0.10;0.10;;;;;;;;;;5146696;27;20096;-74
2023/10/10 00:12:25;;;;;;;0.10;0.10;;;;;;;;;;5147674;27;20133;-74
2023/10/10 00:15:05;;;;;;;0.10;0.10;;;;;;;;;;5144008;27;20047;-74
2023/10/10 00:17:35;;;;;;;0.10;0.10;;;;;;;;;;5148590;27;20539;-74
2023/10/10 00:20:41;;;;;;;0.28;0.28;;;;;;;;;;5139794;27;20055;-73
2023/10/10 00:22:58;;;;;;;0.38;0.30;;;;;;;;;;5143221;27;20043;-76
2023/10/10 00:25:30;;;;;;;;;;;;;;;;;;5146405;27;20496;-74
2023/10/10 00:28:01;;;;;;;0.17;0.15;;;;;;;;;;5128465;27;48444;-75
2023/10/10 00:30:34;;;;;;;0.10;0.10;;;;;;;;;;5149462;27;20147;-74
2023/10/10 00:33:03;;;;;;;0.10;0.10;;;;;;;;;;5145689;27;20051;-74
2023/10/10 00:35:31;;;;;;;0.20;0.20;;;;;;;;;;5127822;27;20553;-74
2023/10/10 00:37:58;;;;;;;0.10;0.10;;;;;;;;;;5128195;27;20083;-75
2023/10/10 00:40:30;;;;;;;0.10;0.10;;;;;;;;;;5143724;27;20062;-74
2023/10/10 00:43:04;;;;;;;0.10;0.10;;;;;;;;;;5144386;27;20056;-75
2023/10/10 00:45:35;;;;;;;0.32;0.32;;;;;;;;;;5146667;27;20051;-74
2023/10/10 00:48:02;;;;;;;3.40;0.63;;;;;;;;;;5149433;27;20112;-75
2023/10/10 00:50:34;;;;;;;0.20;0.20;;;;;;;;;;5147236;27;20051;-76
2023/10/10 00:53:02;;;;;;;0.10;0.10;;;;;;;;;;5128932;27;20062;-76
2023/10/10 00:55:33;;;;;;;0.10;0.10;;;;;;;;;;5140133;27;21768;-75
2023/10/10 00:58:01;;;;;;;0.15;0.15;;;;;;;;;;5126756;27;20094;-75
2023/10/10 01:00:30;;;;;;;0.17;0.17;;;;;;;;;;5144783;27;20051;-75
2023/10/10 01:03:07;;;;;;;0.20;0.20;;;;;;;;;;5147674;27;20195;-74
2023/10/10 01:05:41;;;;;;;0.40;0.40;;;;;;;;;;5129516;27;20512;-74
2023/10/10 01:08:07;;;;;;;0.28;0.25;;;;;;;;;;5147472;27;20051;-74
2023/10/10 01:10:43;;;;;;;0.45;0.45;;;;;;;;;;5143741;27;20385;-75
2023/10/10 01:13:11;;;;;;;0.10;0.10;;;;;;;;;;5146545;27;20146;-74
2023/10/10 01:15:37;;;;;;;0.10;0.10;;;;;;;;;;5145603;27;20058;-74
2023/10/10 01:18:12;;;;;;;0.38;0.30;;;;;;;;;;5128430;27;20526;-74
2023/10/10 01:20:46;;;;;;;0.10;0.10;;;;;;;;;;5148500;27;20060;-74
2023/10/10 01:23:18;;;;;;;0.10;0.10;;;;;;;;;;5144071;27;20055;-74
2023/10/10 01:25:48;;;;;;;0.40;0.38;;;;;;;;;;5140715;27;20531;-74
2023/10/10 01:33:28;;;;;;;0.10;0.10;;;;;;;;;;5143610;27;20084;-75
2023/10/10 01:35:58;;;;;;;0.10;0.10;;;;;;;;;;5146123;27;20051;-76
2023/10/10 01:38:28;;;;;;;0.32;0.28;;;;;;;;;;5148242;27;20047;-74
2023/10/10 01:40:54;;;;;;;0.57;0.57;;;;;;;;;;5125177;27;20073;-75
2023/10/10 01:43:21;;;;;;;0.20;0.20;;;;;;;;;;5145278;27;20124;-74
2023/10/10 01:46:08;;;;;;;0.00;0.00;;;;;;;;;;5143236;27;20146;-76
2023/10/10 01:48:38;;;;;;;0.10;0.10;;;;;;;;;;5146277;27;20055;-75
2023/10/10 01:51:08;;;;;;;0.30;0.30;;;;;;;;;;5128474;27;20048;-75
2023/10/10 01:53:40;;;;;;;0.22;0.17;;;;;;;;;;5134974;27;20108;-75
2023/10/10 01:56:11;;;;;;;0.10;0.10;;;;;;;;;;5145093;27;20467;-74
2023/10/10 01:58:38;;;;;;;0.25;0.25;;;;;;;;;;5145308;27;20055;-74
2023/10/10 02:01:18;;;;;;;0.28;0.25;;;;;;;;;;5151042;27;20055;-75
2023/10/10 02:03:46;;;;;;;;;;;;;;;;;;5151962;27;20939;-74
2023/10/10 02:06:26;;;;;;;0.10;0.10;;;;;;;;;;5131058;27;42705;-75
2023/10/10 02:08:52;;;;;;;0.10;0.10;;;;;;;;;;5149342;27;20055;-74
2023/10/10 02:11:22;;;;;;;0.10;0.10;;;;;;;;;;5131704;27;20051;-74
2023/10/10 02:13:48;;;;;;;0.28;0.28;;;;;;;;;;5151401;27;20055;-74
2023/10/10 02:16:18;;;;;;;0.20;0.20;;;;;;;;;;5150571;27;20581;-76
2023/10/10 02:18:51;;;;;;;0.82;0.52;;;;;;;;;;5151100;27;20047;-74
2023/10/10 02:21:43;;;;;;;0.10;0.10;;;;;;;;;;5131337;27;20157;-75
2023/10/10 02:26:54;;;;;;;0.10;0.10;;;;;;;;;;5146264;27;20098;-75
2023/10/10 02:29:34;;;;;;;0.90;0.45;;;;;;;;;;5147797;27;20562;-74
2023/10/10 02:32:13;;;;;;;1.20;1.17;;;;;;;;;;5130504;27;20043;-74
2023/10/10 02:34:43;;;;;;;0.30;0.30;;;;;;;;;;5150133;27;20058;-74
2023/10/10 02:40:05;;;;;;;0.30;0.30;;;;;;;;;;5145716;27;20044;-74
2023/10/10 02:42:33;;;;;;;0.10;0.10;;;;;;;;;;5150601;27;20128;-74
2023/10/10 02:45:00;;;;;;;0.38;0.38;;;;;;;;;;5129700;27;20062;-76
2023/10/10 02:47:32;;;;;;;0.10;0.10;;;;;;;;;;5148829;27;20058;-74
2023/10/10 02:53:00;;;;;;;0.10;0.10;;;;;;;;;;5114270;27;20051;-74
2023/10/10 02:55:33;;;;;;;0.10;0.10;;;;;;;;;;5150717;27;20142;-74
2023/10/10 02:57:59;;;;;;;0.22;0.20;;;;;;;;;;5149926;27;20557;-75
2023/10/10 03:02:53;;;;;;;0.20;0.20;;;;;;;;;;5148539;27;20055;-75
2023/10/10 03:05:38;;;;;;;0.40;0.40;;;;;;;;;;5132689;27;20048;-74
2023/10/10 03:08:15;;;;;;;0.30;0.28;;;;;;;;;;5146574;27;20581;-75
2023/10/10 03:10:46;;;;;;;0.10;0.10;;;;;;;;;;5146075;27;20051;-75
2023/10/10 03:13:28;;;;;;;0.10;0.10;;;;;;;;;;5148773;27;20048;-74
2023/10/10 03:15:56;;;;;;;0.20;0.20;;;;;;;;;;5150487;27;20536;-74
2023/10/10 03:18:29;;;;;;;0.90;0.60;;;;;;;;;;5148755;27;20051;-74
2023/10/10 03:23:52;;;;;;;0.20;0.20;;;;;;;;;;5141509;27;20097;-76
2023/10/10 03:26:30;;;;;;;0.10;0.10;;;;;;;;;;5141158;27;21188;-75
2023/10/10 03:29:04;;;;;;;0.10;0.10;;;;;;;;;;5147162;27;20879;-76
2023/10/10 03:31:46;;;;;;;0.10;0.10;;;;;;;;;;5147069;27;20047;-74
2023/10/10 03:34:43;;;;;;;0.10;0.10;;;;;;;;;;5150053;27;20584;-74
2023/10/10 05:25:13;;;;;;;0.20;0.20;;;;;;;;;;5107188;27;20139;-77
2023/10/10 05:27:41;;;;;;;0.20;0.20;;;;;;;;;;5108266;27;20047;-76
2023/10/10 05:30:08;;;;;;;0.63;0.60;;;;;;;;;;5098341;27;20062;-77
2023/10/10 05:32:34;;;;;;;0.10;0.10;;;;;;;;;;5101823;27;20525;-77
2023/10/10 05:35:11;;;;;;;0.50;0.50;;;;;;;;;;5108681;27;20053;-76
2023/10/10 05:37:39;;;;;;;0.30;0.30;;;;;;;;;;5105505;27;20060;-75
2023/10/10 05:40:06;;;;;;;0.10;0.10;;;;;;;;;;5110805;27;20101;-77
2023/10/10 05:42:34;;;;;;;0.28;0.28;;;;;;;;;;5097480;27;20506;-77
2023/10/10 05:45:06;;;;;;;1.85;0.95;;;;;;;;;;5108475;27;20052;-75
2023/10/10 05:47:32;;;;;;;1.75;0.90;;;;;;;;;;5101701;27;20048;-77
2023/10/10 05:49:59;;;;;;;1.00;0.75;;;;;;;;;;5108191;27;20927;-75
2023/10/10 05:52:28;;;;;;;0.90;0.70;;;;;;;;;;5109563;28;20136;-76
2023/10/10 05:54:55;;;;;;;0.70;0.52;;;;;;;;;;5098380;28;20615;-78
2023/10/10 05:57:21;;;;;;;0.30;0.30;;;;;;;;;;5107186;28;20052;-77
2023/10/10 05:59:48;;;;;;;0.75;0.47;;;;;;;;;;5107974;28;20052;-77
2023/10/10 06:02:16;;;;;;;0.20;0.20;;;;;;;;;;5105517;28;20051;-76
2023/10/10 06:04:43;;;;;;;0.47;0.35;;;;;;;;;;5106900;28;20052;-77
2023/10/10 06:07:10;;;;;;;0.10;0.10;;;;;;;;;;5108781;27;20060;-75
2023/10/10 06:09:40;;;;;;;0.38;0.38;;;;;;;;;;5105733;28;20109;-75
2023/10/10 06:12:09;;;;;;;1.58;1.17;;;;;;;;;;5098724;28;20056;-75
2023/10/10 06:14:36;;;;;;;2.40;0.73;;;;;;;;;;5099243;28;20139;-75
2023/10/10 06:17:02;;;;;;;0.50;0.50;;;;;;;;;;5103707;28;20064;-76
2023/10/10 06:19:29;;;;;;;0.10;0.10;;;;;;;;;;5100638;28;20048;-75
2023/10/10 06:22:02;;;;;;;1.10;0.65;;;;;;;;;;5107744;28;20055;-76
2023/10/10 06:24:28;;;;;;;0.25;0.25;;;;;;;;;;5100832;28;20056;-75
2023/10/10 06:27:00;;;;;;;0.40;0.40;;;;;;;;;;5098536;28;20517;-75
2023/10/10 06:29:29;;;;;;;0.10;0.10;;;;;;;;;;5105585;28;20131;-75
2023/10/10 06:31:58;;;;;;;0.38;0.22;;;;;;;;;;5096703;28;20052;-76
2023/10/10 06:34:34;;;;;;;0.10;0.10;;;;;;;;;;5105475;28;20051;-75
2023/10/10 06:37:07;;;;;;;0.30;0.20;;;;;;;;;;5100140;27;20102;-75
2023/10/10 06:39:34;;;;;;;0.40;0.40;;;;;;;;;;5106982;28;20062;-75
2023/10/10 06:42:03;;;;;;;0.55;0.30;;;;;;;;;;5096118;27;20044;-75
2023/10/10 06:44:34;;;;;;;2.83;0.38;;;;;;;;;;5099681;27;20513;-74
2023/10/10 06:47:08;;;;;;;0.15;0.15;;;;;;;;;;5107226;28;20059;-74
2023/10/10 06:49:53;;;;;;;0.13;0.13;;;;;;;;;;5106861;28;20085;-75
2023/10/10 06:52:23;;;;;;;0.57;0.57;;;;;;;;;;5106842;28;20048;-75
2023/10/10 06:54:56;;;;;;;0.38;0.38;;;;;;;;;;5106331;28;20127;-76
2023/10/10 06:57:35;;;;;;;0.57;0.57;;;;;;;;;;5104359;27;20056;-76
2023/10/10 07:00:27;;;;;;;0.30;0.30;;;;;;;;;;5108870;28;20135;-74
2023/10/10 07:02:55;;;;;;;0.10;0.10;;;;;;;;;;5101551;28;20082;-77
2023/10/10 07:05:26;;;;;;;0.20;0.20;;;;;;;;;;5106890;28;20175;-77
2023/10/10 07:07:58;;;;;;;1.05;0.32;;;;;;;;;;5108480;27;20096;-76
2023/10/10 07:10:34;;;;;;;0.20;0.20;;;;;;;;;;5107189;28;20106;-76
2023/10/10 07:13:01;;;;;;;0.47;0.40;;;;;;;;;;5106603;27;20052;-79
2023/10/10 07:15:34;;;;;;;0.13;0.13;;;;;;;;;;5103653;28;20052;-77
2023/10/10 07:21:04;;;;;;;1.08;0.85;;;;;;;;;;5092858;28;20508;-80
2023/10/10 07:23:37;;;;;;;0.30;0.30;;;;;;;;;;5104454;27;20077;-80
2023/10/10 07:26:05;;;;;;;0.10;0.10;;;;;;;;;;5096610;27;20063;-78
2023/10/10 07:28:47;;;;;;;0.50;0.47;;;;;;;;;;5097573;27;20049;-78
2023/10/10 07:31:28;;;;;;;0.80;0.63;;;;;;;;;;5096682;27;20048;-78
2023/10/10 07:33:55;;;;;;;0.55;0.50;;;;;;;;;;5097222;27;20052;-81
2023/10/10 07:36:26;;;;;;;0.57;0.57;;;;;;;;;;5102407;27;20052;-80
2023/10/10 07:39:32;;;;;;;0.20;0.20;;;;;;;;;;5091221;27;20138;-79
2023/10/10 07:41:45;;;;;;;0.17;0.17;;;;;;;;;;5103214;27;20497;-77
2023/10/10 07:44:12;;;;;;;0.20;0.20;;;;;;;;;;5106817;27;20501;-78
2023/10/10 07:46:44;;;;;;;0.45;0.35;;;;;;;;;;5099447;27;20056;-78
2023/10/10 07:49:16;;;;;;;0.80;0.77;;;;;;;;;;5097514;27;20049;-78
2023/10/10 07:51:49;;;;;;;0.10;0.10;;;;;;;;;;5103838;27;20052;-78
2023/10/10 07:54:29;;;;;;;0.32;0.30;;;;;;;;;;5096414;27;20426;-78
2023/10/10 07:56:55;;;;;;;0.35;0.35;;;;;;;;;;5099178;27;20114;-76
2023/10/10 07:59:22;;;;;;;0.10;0.10;;;;;;;;;;5108678;27;20052;-77
2023/10/10 08:01:50;;;;;;;1.15;0.80;;;;;;;;;;5098806;27;20048;-77
2023/10/10 08:04:16;;;;;;;0.20;0.20;;;;;;;;;;5098254;27;20048;-78
2023/10/10 08:06:47;;;;;;;0.30;0.30;;;;;;;;;;5098926;27;20059;-78
2023/10/10 08:11:44;;;;;;;0.25;0.20;;;;;;;;;;5101906;28;20052;-78
2023/10/10 08:14:11;;;;;;;0.32;0.32;;;;;;;;;;5099347;27;20052;-77
2023/10/10 08:16:39;;;;;;;0.82;0.50;;;;;;;;;;5097841;27;20055;-79
2023/10/10 08:19:15;;;;;;;2.33;1.60;;;;;;;;;;5104870;27;20526;-79
2023/10/10 08:21:51;;;;;;;0.43;0.32;;;;;;;;;;5097191;27;20060;-78
2023/10/10 08:24:19;;;;;;;1.13;0.40;;;;;;;;;;5111809;28;20106;-78
2023/10/10 08:26:51;;;;;;;0.52;0.43;;;;;;;;;;5107020;27;20064;-78
2023/10/10 08:29:22;;;;;;;0.57;0.57;;;;;;;;;;5098615;28;20063;-79
2023/10/10 08:31:51;;;;;;;;;;;;;;;;;;5107427;27;20056;-78
2023/10/10 08:34:18;;;;;;;0.68;0.68;;;;;;;;;;5101713;27;46437;-78
2023/10/10 08:36:49;;;;;;;0.20;0.17;;;;;;;;;;5102535;27;20079;-77
2023/10/10 08:41:45;;;;;;;0.30;0.30;;;;;;;;;;5103241;27;20597;-77
2023/10/10 08:44:14;;;;;;;1.15;0.73;;;;;;;;;;5100579;27;20056;-77
2023/10/10 08:46:46;;;;;;;1.10;0.80;;;;;;;;;;5096910;27;20051;-77
2023/10/10 08:49:13;;;;;;;0.80;0.52;;;;;;;;;;5105600;28;20236;-77
2023/10/10 08:51:41;;;;;;;0.47;0.43;;;;;;;;;;5103211;27;20109;-77
2023/10/10 08:54:12;;;;;;;0.20;0.20;;;;;;;;;;5092434;28;20063;-77
2023/10/10 08:56:38;;;;;;;;;;;;;;;;;;5103861;27;20134;-77
2023/10/10 08:59:10;;;;;;;4.13;1.02;;;;;;;;;;5105741;28;44842;-77
2023/10/10 09:01:38;;;;;;;0.38;0.35;;;;;;;;;;5100117;28;20052;-76
2023/10/10 09:04:05;;;;;;;0.17;0.17;;;;;;;;;;5107332;28;20048;-76
2023/10/10 09:06:43;;;;;;;1.05;0.93;;;;;;;;;;5098375;27;20105;-77
2023/10/10 09:09:33;;;;;;;0.47;0.40;;;;;;;;;;5097601;27;20048;-76
2023/10/10 09:11:56;;;;;;;1.55;0.60;;;;;;;;;;5101156;28;20048;-76
2023/10/10 09:14:37;;;;;;;0.82;0.55;;;;;;;;;;5102702;28;20085;-76
2023/10/10 09:17:06;;;;;;;0.38;0.30;;;;;;;;;;5105151;28;20056;-76
2023/10/10 09:19:36;;;;;;;0.30;0.30;;;;;;;;;;5095965;27;20079;-76
2023/10/10 09:22:12;;;;;;;0.98;0.68;;;;;;;;;;5101295;28;20051;-76
2023/10/10 09:24:41;;;;;;;0.60;0.60;;;;;;;;;;5106611;28;20044;-77
2023/10/10 09:27:15;;;;;;;2.50;0.88;;;;;;;;;;5101976;28;20139;-77
2023/10/10 09:29:43;;;;;;;0.30;0.30;;;;;;;;;;5099919;28;20762;-77
2023/10/10 09:32:15;;;;;;;0.28;0.28;;;;;;;;;;5093033;28;20044;-77
2023/10/10 09:34:41;;;;;;;1.95;0.35;;;;;;;;;;5102727;27;20059;-77
2023/10/10 09:37:10;;;;;;;2.08;1.55;;;;;;;;;;5105119;27;20151;-77
2023/10/10 09:39:36;;;;;;;0.30;0.30;;;;;;;;;;5106707;28;20583;-77
2023/10/10 09:42:22;;;;;;;0.90;0.50;;;;;;;;;;5099835;28;20584;-77
2023/10/10 09:47:43;;;;;;;2.17;0.80;;;;;;;;;;5101935;27;20052;-76
2023/10/10 09:50:35;;;;;;;1.50;0.75;;;;;;;;;;5104354;28;20067;-76
2023/10/10 09:52:58;;;;;;;1.23;0.85;;;;;;;;;;5094299;27;20080;-77
2023/10/10 10:05:58;;;;;;;0.85;0.68;;;;;;;;;;5100115;27;20044;-76
2023/10/10 10:09:01;;;;;;;0.63;0.60;;;;;;;;;;5094464;27;20067;-76
2023/10/10 10:11:33;;;;;;;0.20;0.20;;;;;;;;;;5082869;27;20059;-76
2023/10/10 10:14:22;;;;;;;1.58;0.95;;;;;;;;;;5097601;27;20044;-76
2023/10/10 10:17:12;;;;;;;0.82;0.40;;;;;;;;;;5095514;27;20056;-76
2023/10/10 10:19:42;;;;;;;0.57;0.57;;;;;;;;;;5095907;27;21054;-77
2023/10/10 10:22:18;;;;;;;0.88;0.80;;;;;;;;;;5099982;27;20052;-76
2023/10/10 10:24:45;;;;;;;3.15;1.17;;;;;;;;;;5104387;27;20063;-76
2023/10/10 10:32:48;;;;;;;1.05;0.55;;;;;;;;;;5099914;27;20134;-76
2023/10/10 10:35:22;;;;;;;0.98;0.77;;;;;;;;;;5102349;27;20077;-77
2023/10/10 10:37:56;;;;;;;0.82;0.55;;;;;;;;;;5098366;27;20745;-76
2023/10/10 10:40:41;;;;;;;0.50;0.25;;;;;;;;;;5103163;27;20935;-76
2023/10/10 10:43:13;;;;;;;0.40;0.38;;;;;;;;;;5105773;27;20051;-77
2023/10/10 10:45:44;;;;;;;0.98;0.75;;;;;;;;;;5107289;28;20536;-77
2023/10/10 10:48:30;;;;;;;0.45;0.35;;;;;;;;;;5098416;27;20048;-77
2023/10/10 10:50:58;;;;;;;0.55;0.52;;;;;;;;;;5103615;27;20087;-77
2023/10/10 10:53:35;;;;;;;0.50;0.40;;;;;;;;;;5105547;27;20052;-77
2023/10/10 10:59:11;;;;;;;0.40;0.30;;;;;;;;;;5101174;27;20062;-77
2023/10/10 11:01:42;;;;;;;0.28;0.28;;;;;;;;;;5105522;27;20122;-77
2023/10/10 11:04:14;;;;;;;0.35;0.30;;;;;;;;;;5096242;27;20105;-77
2023/10/10 11:07:03;;;;;;;0.35;0.30;;;;;;;;;;5104669;27;20048;-77
2023/10/10 11:09:31;;;;;;;0.50;0.32;;;;;;;;;;5096457;27;20533;-76
2023/10/10 11:12:02;;;;;;;1.10;0.75;;;;;;;;;;5105779;27;20060;-77
2023/10/10 11:14:31;;;;;;;1.30;0.55;;;;;;;;;;5097846;27;20114;-77
2023/10/10 11:16:58;;;;;;;0.47;0.40;;;;;;;;;;5103036;27;20102;-77
2023/10/10 11:21:55;;;;;;;;;;;;;;;;;;5097961;27;20056;-77
2023/10/10 11:24:25;;;;;;;0.57;0.55;;;;;;;;;;5100574;27;48305;-77
2023/10/10 11:27:13;;;;;;;0.38;0.38;;;;;;;;;;5104222;27;20052;-78
2023/10/10 11:29:44;;;;;;;1.77;0.65;;;;;;;;;;5100764;27;20032;-78
2023/10/10 11:32:12;;;;;;;0.57;0.57;;;;;;;;;;5109729;27;20553;-77
2023/10/10 11:34:45;;;;;;;1.50;0.77;;;;;;;;;;5111605;27;20059;-78
2023/10/10 11:37:14;;;;;;;1.65;1.55;;;;;;;;;;5106035;27;20105;-77
2023/10/10 11:39:47;;;;;;;0.30;0.30;;;;;;;;;;5105370;27;20052;-78
2023/10/10 11:42:23;;;;;;;0.77;0.63;;;;;;;;;;5107076;27;20052;-79
2023/10/10 11:45:10;;;;;;;0.32;0.30;;;;;;;;;;5100102;27;20024;-79
2023/10/10 11:47:42;;;;;;;3.55;0.80;;;;;;;;;;5103862;27;20063;-79
2023/10/10 11:50:11;;;;;;;0.55;0.47;;;;;;;;;;5093233;27;20163;-78
2023/10/10 11:52:57;;;;;;;1.35;0.70;;;;;;;;;;5099405;27;20059;-78
2023/10/10 11:55:24;;;;;;;0.85;0.30;;;;;;;;;;5099352;27;20151;-78
2023/10/10 11:57:51;;;;;;;0.75;0.40;;;;;;;;;;5105744;28;20057;-78
2023/10/10 12:03:11;;;;;;;0.75;0.73;;;;;;;;;;5068288;27;20155;-78
2023/10/10 12:05:47;;;;;;;0.20;0.20;;;;;;;;;;5104253;27;20052;-78
2023/10/10 12:08:24;;;;;;;0.65;0.43;;;;;;;;;;5099370;27;20578;-77
2023/10/10 12:11:12;;;;;;;0.90;0.80;;;;;;;;;;5098544;27;20048;-77
2023/10/10 12:13:38;;;;;;;0.82;0.65;;;;;;;;;;5104106;27;20040;-78
2023/10/10 12:16:10;;;;;;;1.90;1.10;;;;;;;;;;5105424;27;20057;-79
2023/10/10 12:18:44;;;;;;;0.38;0.30;;;;;;;;;;5096977;27;20534;-79
2023/10/10 12:21:14;;;;;;;0.20;0.20;;;;;;;;;;5098889;27;21000;-78
2023/10/10 12:23:41;;;;;;;6.13;0.63;;;;;;;;;;5107380;27;20408;-78
2023/10/10 12:26:11;;;;;;;0.45;0.40;;;;;;;;;;5100998;27;20055;-78
2023/10/10 12:28:38;;;;;;;0.60;0.57;;;;;;;;;;5101706;27;20060;-78
2023/10/10 12:31:08;;;;;;;0.88;0.30;;;;;;;;;;5101631;27;20059;-78
2023/10/10 12:33:38;;;;;;;2.80;0.80;;;;;;;;;;5105472;27;20079;-79
2023/10/10 12:36:09;;;;;;;0.40;0.30;;;;;;;;;;5105548;27;20051;-78
2023/10/10 12:38:37;;;;;;;0.88;0.43;;;;;;;;;;5096707;27;20275;-78
2023/10/10 12:41:11;;;;;;;1.20;1.10;;;;;;;;;;5104046;27;20056;-79
2023/10/10 12:43:38;;;;;;;0.30;0.30;;;;;;;;;;5102865;27;20052;-79
2023/10/10 12:46:07;;;;;;;0.10;0.10;;;;;;;;;;5108560;27;21022;-79
2023/10/10 12:48:39;;;;;;;1.25;0.68;;;;;;;;;;5107662;27;20056;-79
2023/10/10 12:51:09;;;;;;;2.03;0.85;;;;;;;;;;5099438;27;20512;-77
2023/10/10 12:53:39;;;;;;;0.50;0.50;;;;;;;;;;5100770;27;20056;-77
2023/10/10 12:56:06;;;;;;;;;;;;;;;;;;5105604;27;20044;-78
2023/10/10 12:58:32;;;;;;;0.60;0.45;;;;;;;;;;5100262;27;46439;-77
2023/10/10 13:00:59;;;;;;;1.00;0.57;;;;;;;;;;5099850;27;20059;-77
2023/10/10 13:03:27;;;;;;;1.90;0.50;;;;;;;;;;5097163;27;20084;-77
2023/10/10 13:05:58;;;;;;;0.65;0.60;;;;;;;;;;5099934;27;20102;-77
2023/10/10 13:08:25;;;;;;;0.75;0.75;;;;;;;;;;5089051;27;20148;-77
2023/10/10 13:10:55;;;;;;;0.22;0.22;;;;;;;;;;5097291;27;20074;-77
2023/10/10 13:13:26;;;;;;;1.90;1.07;;;;;;;;;;5097301;27;20052;-77
2023/10/10 13:16:07;;;;;;;0.40;0.40;;;;;;;;;;5102439;27;20164;-77
2023/10/10 13:18:35;;;;;;;0.70;0.60;;;;;;;;;;5096720;27;20052;-77
2023/10/10 13:21:02;;;;;;;0.45;0.40;;;;;;;;;;5093661;27;20048;-77
2023/10/10 13:23:30;;;;;;;1.40;0.70;;;;;;;;;;5096256;27;20477;-76
2023/10/10 13:25:57;;;;;;;1.00;0.30;;;;;;;;;;5099641;27;20696;-77
2023/10/10 13:28:23;;;;;;;0.55;0.40;;;;;;;;;;5098776;27;20642;-79
2023/10/10 13:30:50;;;;;;;0.57;0.43;;;;;;;;;;5096411;27;20110;-78
2023/10/10 13:33:16;;;;;;;0.73;0.47;;;;;;;;;;5098106;27;20044;-78
2023/10/10 13:35:44;;;;;;;0.70;0.50;;;;;;;;;;5104051;28;20056;-77
2023/10/10 13:38:11;;;;;;;2.85;0.65;;;;;;;;;;5100732;27;20515;-77
2023/10/10 13:40:37;;;;;;;0.52;0.32;;;;;;;;;;5098217;28;20048;-76
2023/10/10 13:43:08;;;;;;;0.93;0.80;;;;;;;;;;5093070;27;20076;-76
2023/10/10 13:45:35;;;;;;;3.03;0.70;;;;;;;;;;5094454;27;20105;-77
2023/10/10 13:48:03;;;;;;;1.88;1.75;;;;;;;;;;5102637;27;20040;-77
2023/10/10 13:50:40;;;;;;;0.98;0.70;;;;;;;;;;5096712;27;20575;-77
2023/10/10 13:53:11;;;;;;;4.30;0.75;;;;;;;;;;5100030;27;20094;-78
2023/10/10 13:55:38;;;;;;;0.38;0.35;;;;;;;;;;5109227;27;20045;-77
2023/10/10 13:58:07;;;;;;;0.68;0.43;;;;;;;;;;5106185;27;20060;-77
2023/10/10 14:00:34;;;;;;;0.30;0.30;;;;;;;;;;5109896;27;20056;-78
2023/10/10 14:03:03;;;;;;;1.27;1.00;;;;;;;;;;5105582;27;20068;-78
2023/10/10 14:05:35;;;;;;;0.85;0.70;;;;;;;;;;5107546;27;20636;-78
2023/10/10 14:08:03;;;;;;;1.45;0.88;;;;;;;;;;5104359;27;20054;-78
2023/10/10 14:10:39;;;;;;;0.25;0.20;;;;;;;;;;5110714;27;20048;-78
2023/10/10 14:13:18;;;;;;;0.98;0.77;;;;;;;;;;5104186;27;20080;-77
2023/10/10 14:15:56;;;;;;;0.57;0.52;;;;;;;;;;5102998;27;20055;-77
2023/10/10 14:18:24;;;;;;;0.50;0.30;;;;;;;;;;5101253;27;20293;-77
2023/10/10 14:20:50;;;;;;;0.43;0.40;;;;;;;;;;5105112;27;20048;-77
2023/10/10 14:23:18;;;;;;;0.55;0.50;;;;;;;;;;5102559;27;20067;-77
2023/10/10 14:25:49;;;;;;;0.20;0.20;;;;;;;;;;5109413;27;20506;-78
2023/10/10 14:28:19;;;;;;;0.20;0.20;;;;;;;;;;5106269;27;20509;-78
2023/10/10 14:30:49;;;;;;;0.57;0.40;;;;;;;;;;5106793;27;20091;-78
2023/10/10 14:33:22;;;;;;;0.50;0.40;;;;;;;;;;5101446;27;20040;-77
2023/10/10 14:35:49;;;;;;;0.35;0.35;;;;;;;;;;5101332;27;20056;-78
2023/10/10 14:38:18;;;;;;;0.30;0.30;;;;;;;;;;5098683;27;20052;-78
2023/10/10 14:40:45;;;;;;;0.35;0.35;;;;;;;;;;5102326;27;20052;-78
2023/10/10 14:43:12;;;;;;;0.43;0.30;;;;;;;;;;5110464;27;20055;-77
2023/10/10 14:45:42;;;;;;;0.43;0.35;;;;;;;;;;5100150;27;20055;-79
2023/10/10 14:48:09;;;;;;;2.63;0.82;;;;;;;;;;5105596;27;20047;-78
2023/10/10 14:50:37;;;;;;;0.45;0.45;;;;;;;;;;5107280;27;20056;-78
2023/10/10 14:53:08;;;;;;;0.25;0.25;;;;;;;;;;5101742;28;20052;-78
2023/10/10 14:55:44;;;;;;;0.20;0.20;;;;;;;;;;5098501;27;20733;-78
2023/10/10 14:58:12;;;;;;;0.47;0.32;;;;;;;;;;5106745;27;20055;-78
2023/10/10 15:00:41;;;;;;;0.38;0.30;;;;;;;;;;5093047;27;20133;-78
2023/10/10 15:03:13;;;;;;;0.63;0.63;;;;;;;;;;5094888;27;20048;-77
2023/10/10 15:05:46;;;;;;;0.63;0.38;;;;;;;;;;5103775;27;20414;-78
2023/10/10 15:08:13;;;;;;;0.20;0.20;;;;;;;;;;5104970;27;20523;-77
2023/10/10 15:10:43;;;;;;;0.55;0.43;;;;;;;;;;5103876;27;20160;-78
2023/10/10 15:13:11;;;;;;;0.20;0.20;;;;;;;;;;5105681;27;20060;-77
2023/10/10 15:15:40;;;;;;;0.30;0.30;;;;;;;;;;5101324;27;20056;-78
2023/10/10 15:18:06;;;;;;;0.35;0.30;;;;;;;;;;5091463;27;20052;-77
2023/10/10 15:20:34;;;;;;;0.75;0.73;;;;;;;;;;5104260;27;22748;-77
2023/10/10 15:23:00;;;;;;;0.77;0.40;;;;;;;;;;5105145;27;20059;-78
2023/10/10 15:25:26;;;;;;;0.20;0.20;;;;;;;;;;5102511;27;20084;-77
2023/10/10 15:27:54;;;;;;;0.30;0.30;;;;;;;;;;5097793;27;20060;-77
2023/10/10 15:30:20;;;;;;;0.20;0.20;;;;;;;;;;5100575;27;20938;-78
2023/10/10 15:32:47;;;;;;;1.10;0.85;;;;;;;;;;5112911;27;20506;-78
2023/10/10 15:35:18;;;;;;;0.30;0.25;;;;;;;;;;5110156;27;20108;-78
2023/10/10 15:37:46;;;;;;;0.47;0.47;;;;;;;;;;5106137;27;20060;-78
2023/10/10 15:40:13;;;;;;;0.10;0.10;;;;;;;;;;5102812;27;20109;-78
2023/10/10 15:42:48;;;;;;;0.10;0.10;;;;;;;;;;5101125;27;20571;-78
2023/10/10 15:45:20;;;;;;;0.77;0.50;;;;;;;;;;5104474;27;20057;-78
2023/10/10 15:47:48;;;;;;;0.20;0.20;;;;;;;;;;5107537;27;20056;-78
2023/10/10 15:50:16;;;;;;;0.28;0.28;;;;;;;;;;5113320;27;20090;-79
2023/10/10 15:52:48;;;;;;;0.52;0.52;;;;;;;;;;5106073;27;20052;-77
2023/10/10 15:55:23;;;;;;;1.70;0.38;;;;;;;;;;5098007;27;20056;-77
2023/10/10 15:57:54;;;;;;;0.20;0.20;;;;;;;;;;5098396;27;20067;-77
2023/10/10 16:00:31;;;;;;;0.25;0.25;;;;;;;;;;5104702;27;20052;-77
2023/10/10 16:02:59;;;;;;;0.30;0.30;;;;;;;;;;5107160;27;20051;-77
2023/10/10 16:05:25;;;;;;;0.20;0.20;;;;;;;;;;5107734;27;20314;-77
2023/10/10 16:07:52;;;;;;;0.52;0.38;;;;;;;;;;5102640;27;20461;-77
2023/10/10 16:10:35;;;;;;;0.20;0.20;;;;;;;;;;5102151;27;20052;-77
2023/10/10 16:13:07;;;;;;;0.45;0.30;;;;;;;;;;5099821;27;20075;-77
2023/10/10 16:15:33;;;;;;;0.32;0.22;;;;;;;;;;5107074;27;20524;-77
2023/10/10 16:18:00;;;;;;;0.10;0.10;;;;;;;;;;5104151;27;20605;-77
2023/10/10 16:20:26;;;;;;;0.52;0.40;;;;;;;;;;5110111;28;20057;-76
2023/10/10 16:22:53;;;;;;;1.00;0.40;;;;;;;;;;5104886;27;20067;-76
2023/10/10 16:25:23;;;;;;;0.68;0.35;;;;;;;;;;5103300;28;20053;-77
2023/10/10 16:27:50;;;;;;;0.28;0.20;;;;;;;;;;5108891;27;20052;-77
2023/10/10 16:30:16;;;;;;;0.20;0.20;;;;;;;;;;5101354;28;20114;-77
2023/10/10 16:32:43;;;;;;;0.52;0.52;;;;;;;;;;5102152;27;20096;-76
2023/10/10 16:35:11;;;;;;;0.20;0.17;;;;;;;;;;5102887;28;20075;-77
2023/10/10 16:37:38;;;;;;;0.55;0.50;;;;;;;;;;5100874;27;20059;-77
2023/10/10 16:40:08;;;;;;;0.10;0.10;;;;;;;;;;5106035;28;20051;-77
2023/10/10 16:42:34;;;;;;;1.08;0.43;;;;;;;;;;5100905;28;20119;-77
2023/10/10 16:45:01;;;;;;;0.20;0.20;;;;;;;;;;5095922;27;20059;-77
2023/10/10 16:47:28;;;;;;;0.90;0.30;;;;;;;;;;5104921;27;20052;-78
2023/10/10 16:49:55;;;;;;;0.10;0.10;;;;;;;;;;5104264;27;20036;-78
2023/10/10 16:52:25;;;;;;;1.35;0.50;;;;;;;;;;5105525;27;20051;-77
2023/10/10 16:54:53;;;;;;;0.30;0.20;;;;;;;;;;5106933;27;20258;-77
2023/10/10 16:57:22;;;;;;;0.50;0.45;;;;;;;;;;5103566;27;20055;-77
2023/10/10 16:59:50;;;;;;;;;;;;;;;;;;5098845;27;20064;-77
2023/10/10 17:02:16;;;;;;;0.55;0.30;;;;;;;;;;5106678;28;43534;-77
2023/10/10 17:04:43;;;;;;;0.10;0.10;;;;;;;;;;5098102;27;20137;-77
2023/10/10 17:07:13;;;;;;;0.45;0.40;;;;;;;;;;5103614;27;20106;-77
2023/10/10 17:09:40;;;;;;;0.20;0.20;;;;;;;;;;5103350;27;20048;-76
2023/10/10 17:12:06;;;;;;;0.47;0.30;;;;;;;;;;5100116;27;20506;-77
2023/10/10 17:14:37;;;;;;;0.22;0.22;;;;;;;;;;5105320;27;20054;-77
2023/10/10 17:17:03;;;;;;;;;;;;;;;;;;5095412;27;20140;-76
2023/10/10 17:19:33;;;;;;;0.20;0.20;;;;;;;;;;5100007;27;47675;-76
2023/10/10 17:22:00;;;;;;;0.30;0.30;;;;;;;;;;5099248;28;20090;-75
2023/10/10 17:24:26;;;;;;;0.25;0.25;;;;;;;;;;5098942;27;20041;-76
2023/10/10 17:26:53;;;;;;;0.30;0.30;;;;;;;;;;5095867;27;20506;-77
2023/10/10 17:29:23;;;;;;;0.73;0.63;;;;;;;;;;5102681;27;20168;-76
2023/10/10 17:31:52;;;;;;;0.20;0.20;;;;;;;;;;5103287;27;20079;-75
2023/10/10 17:34:21;;;;;;;0.30;0.30;;;;;;;;;;5102738;27;20048;-77
2023/10/10 17:36:49;;;;;;;0.20;0.20;;;;;;;;;;5099448;27;20080;-77
2023/10/10 17:39:16;;;;;;;0.20;0.20;;;;;;;;;;5098115;27;20056;-75
2023/10/10 17:41:47;;;;;;;0.17;0.15;;;;;;;;;;5099108;27;20052;-77
2023/10/10 17:44:15;;;;;;;0.30;0.30;;;;;;;;;;5107064;28;20056;-77
2023/10/10 17:46:42;;;;;;;0.38;0.38;;;;;;;;;;5105324;28;20541;-75
2023/10/10 17:49:09;;;;;;;0.10;0.10;;;;;;;;;;5103468;28;20321;-77
2023/10/10 17:51:36;;;;;;;0.10;0.10;;;;;;;;;;5108073;28;20049;-76